createdAt,value
2019-04-23T00:00:45.301Z,16.30
2019-04-23T00:03:51.533Z,16.17
2019-04-23T00:07:15.524Z,16.08
2019-04-23T00:10:12.327Z,15.96
2019-04-23T00:13:12.757Z,16.07
2019-04-23T00:16:27.619Z,16.08
2019-04-23T00:19:27.730Z,16.08
2019-04-23T00:22:41.487Z,16.09
2019-04-23T00:25:53.733Z,16.17
2019-04-23T00:29:08.397Z,16.08
2019-04-23T00:32:10.424Z,16.16
2019-04-23T00:35:12.683Z,16.18
2019-04-23T00:38:21.457Z,16.17
2019-04-23T00:41:24.971Z,16.21
2019-04-23T00:44:33.575Z,16.28
2019-04-23T00:47:49.552Z,16.25
2019-04-23T00:53:43.959Z,15.81
2019-04-23T00:57:02.529Z,15.72
2019-04-23T01:00:14.049Z,15.57
2019-04-23T01:03:12.130Z,15.53
2019-04-23T01:06:21.099Z,15.61
2019-04-23T01:09:22.710Z,15.71
2019-04-23T01:12:37.804Z,15.80
2019-04-23T01:15:41.141Z,15.87
2019-04-23T01:21:32.895Z,15.83
2019-04-23T01:24:41.893Z,15.29
2019-04-23T01:28:13.819Z,14.98
2019-04-23T01:31:20.215Z,14.72
2019-04-23T01:34:31.312Z,14.78
2019-04-23T01:37:36.997Z,14.83
2019-04-23T01:40:40.621Z,14.96
2019-04-23T01:43:47.773Z,14.98
2019-04-23T01:46:55.681Z,15.19
2019-04-23T01:50:09.703Z,15.28
2019-04-23T01:56:14.359Z,15.52
2019-04-23T02:02:26.471Z,15.44
2019-04-23T02:05:34.905Z,15.57
2019-04-23T02:08:47.075Z,15.59
2019-04-23T02:11:55.173Z,15.66
2019-04-23T02:15:00.163Z,15.59
2019-04-23T02:18:10.415Z,15.50
2019-04-23T02:21:07.774Z,15.42
2019-04-23T02:24:20.991Z,15.18
2019-04-23T02:27:29.603Z,15.00
2019-04-23T02:40:08.155Z,14.62
2019-04-23T02:46:05.742Z,14.74
2019-04-23T02:49:17.559Z,14.68
2019-04-23T02:52:21.681Z,14.63
2019-04-23T02:55:41.783Z,14.59
2019-04-23T02:58:41.974Z,14.56
2019-04-23T03:07:53.314Z,14.83
2019-04-23T03:11:07.471Z,14.81
2019-04-23T03:14:12.064Z,14.71
2019-04-23T03:17:10.641Z,14.60
2019-04-23T03:27:00.938Z,14.12
2019-04-23T03:38:56.184Z,13.44
2019-04-23T03:45:43.923Z,13.31
2019-04-23T03:48:32.269Z,13.42
2019-04-23T03:51:38.308Z,13.58
2019-04-23T04:07:15.189Z,13.64
2019-04-23T04:10:11.205Z,13.37
2019-04-23T04:13:24.396Z,13.31
2019-04-23T04:16:28.274Z,13.44
2019-04-23T04:26:00.799Z,13.09
2019-04-23T04:28:51.129Z,13.09
2019-04-23T04:35:18.631Z,13.19
2019-04-23T04:38:17.856Z,13.24
2019-04-23T04:41:13.921Z,13.18
2019-04-23T04:44:38.325Z,13.02
2019-04-23T04:47:41.758Z,12.97
2019-04-23T04:50:35.104Z,12.88
2019-04-23T04:53:50.672Z,12.84
2019-04-23T04:56:44.913Z,12.73
2019-04-23T05:00:06.471Z,12.65
2019-04-23T05:03:17.936Z,12.67
2019-04-23T05:09:31.906Z,12.79
2019-04-23T05:12:22.016Z,12.86
2019-04-23T05:15:25.434Z,12.90
2019-04-23T05:18:39.896Z,13.03
2019-04-23T05:21:46.887Z,13.25
2019-04-23T05:31:01.284Z,13.64
2019-04-23T05:34:04.556Z,13.82
2019-04-23T05:37:14.763Z,13.96
2019-04-23T05:40:30.705Z,13.87
2019-04-23T05:43:30.786Z,13.80
2019-04-23T05:46:33.146Z,13.81
2019-04-23T05:49:31.233Z,13.89
2019-04-23T05:52:45.941Z,14.02
2019-04-23T05:55:55.459Z,14.14
2019-04-23T05:58:58.417Z,14.23
2019-04-23T06:02:11.422Z,14.28
2019-04-23T06:05:16.115Z,14.26
2019-04-23T06:08:17.756Z,14.32
2019-04-23T06:11:28.185Z,14.31
2019-04-23T06:17:29.645Z,14.41
2019-04-23T06:20:50.362Z,14.42
2019-04-23T06:29:59.319Z,14.15
2019-04-23T06:33:11.155Z,14.37
2019-04-23T06:36:15.587Z,14.51
2019-04-23T06:39:26.115Z,14.53
2019-04-23T06:42:23.494Z,14.65
2019-04-23T06:45:34.193Z,14.81
2019-04-23T06:48:42.834Z,14.55
2019-04-23T06:51:51.874Z,14.57
2019-04-23T06:55:10.575Z,14.73
2019-04-23T06:58:08.686Z,14.72
2019-04-23T07:10:28.319Z,14.55
2019-04-23T07:13:44.563Z,14.85
2019-04-23T07:16:41.264Z,14.94
2019-04-23T07:22:58.065Z,14.48
2019-04-23T07:26:06.071Z,14.60
2019-04-23T07:29:18.903Z,14.92
2019-04-23T07:32:11.590Z,14.84
2019-04-23T07:38:42.418Z,14.98
2019-04-23T07:41:56.863Z,14.89
2019-04-23T07:45:02.336Z,14.88
2019-04-23T07:51:14.185Z,15.33
2019-04-23T07:54:32.261Z,15.16
2019-04-23T07:57:28.651Z,15.28
2019-04-23T08:03:45.132Z,15.98
2019-04-23T08:06:56.010Z,16.12
2019-04-23T08:10:06.235Z,16.25
2019-04-23T08:13:10.327Z,15.97
2019-04-23T08:16:18.377Z,16.02
2019-04-23T08:19:18.860Z,16.12
2019-04-23T08:25:34.217Z,16.09
2019-04-23T08:28:52.078Z,16.25
2019-04-23T08:31:56.243Z,16.27
2019-04-23T08:34:56.400Z,16.04
2019-04-23T08:41:12.346Z,16.42
2019-04-23T08:44:24.325Z,16.46
2019-04-23T08:47:23.260Z,16.59
2019-04-23T08:50:32.673Z,17.00
2019-04-23T08:53:47.641Z,17.20
2019-04-23T08:56:50.038Z,17.08
2019-04-23T09:03:03.058Z,17.90
2019-04-23T09:09:04.224Z,17.98
2019-04-23T09:12:18.837Z,18.35
2019-04-23T09:15:23.061Z,18.38
2019-04-23T09:21:34.514Z,18.76
2019-04-23T09:24:41.620Z,18.97
2019-04-23T09:27:49.668Z,19.03
2019-04-23T09:31:00.870Z,19.18
2019-04-23T09:34:11.281Z,19.08
2019-04-23T09:37:35.728Z,18.48
2019-04-23T09:40:59.302Z,18.72
2019-04-23T09:44:30.903Z,18.69
2019-04-23T09:50:52.437Z,18.80
2019-04-23T09:53:56.831Z,19.03
2019-04-23T09:56:54.101Z,19.39
2019-04-23T10:00:15.504Z,19.38
2019-04-23T10:02:59.942Z,19.68
2019-04-23T10:06:01.010Z,19.95
2019-04-23T10:09:00.167Z,20.18
2019-04-23T10:12:05.035Z,20.31
2019-04-23T10:15:18.760Z,20.19
2019-04-23T10:18:16.259Z,20.11
2019-04-23T10:21:21.485Z,19.94
2019-04-23T10:24:27.554Z,20.12
2019-04-23T10:27:32.938Z,20.21
2019-04-23T10:30:38.504Z,20.40
2019-04-23T10:33:44.002Z,20.19
2019-04-23T10:36:49.484Z,20.24
2019-04-23T10:39:58.817Z,20.42
2019-04-23T10:43:02.127Z,20.66
2019-04-23T10:46:35.154Z,20.94
2019-04-23T10:49:53.348Z,21.18
2019-04-23T10:53:04.415Z,21.36
2019-04-23T10:56:00.625Z,21.54
2019-04-23T10:59:11.982Z,21.63
2019-04-23T11:05:29.218Z,21.69
2019-04-23T11:08:30.909Z,21.75
2019-04-23T11:11:34.476Z,21.75
2019-04-23T11:20:58.341Z,21.81
2019-04-23T11:24:11.652Z,21.69
2019-04-23T11:27:16.894Z,21.67
2019-04-23T11:33:25.710Z,21.66
2019-04-23T11:36:47.879Z,21.68
2019-04-23T11:37:58.721Z,21.64
2019-04-23T11:39:46.144Z,21.52
2019-04-23T11:42:50.074Z,21.45
2019-04-23T11:45:54.046Z,21.61
2019-04-23T11:55:29.042Z,21.63
2019-04-23T12:01:42.250Z,22.00
2019-04-23T12:07:36.146Z,22.56
2019-04-23T12:14:35.148Z,22.52
2019-04-23T12:17:41.135Z,22.82
2019-04-23T12:20:39.812Z,22.97
2019-04-23T12:23:54.702Z,23.19
2019-04-23T12:27:00.779Z,23.36
2019-04-23T12:30:08.899Z,23.51
2019-04-23T12:33:10.933Z,23.68
2019-04-23T12:36:48.363Z,23.88
2019-04-23T12:39:41.761Z,24.00
2019-04-23T12:45:47.028Z,24.44
2019-04-23T12:49:13.086Z,24.49
2019-04-23T12:52:11.709Z,24.44
2019-04-23T12:58:21.942Z,24.84
2019-04-23T13:01:35.739Z,24.73
2019-04-23T13:04:43.930Z,24.95
2019-04-23T13:10:48.159Z,25.49
2019-04-23T13:14:00.498Z,25.69
2019-04-23T13:20:15.547Z,25.80
2019-04-23T13:23:16.538Z,26.02
2019-04-23T13:26:11.790Z,26.13
2019-04-23T13:29:38.070Z,26.12
2019-04-23T13:32:38.873Z,26.22
2019-04-23T13:36:01.668Z,26.30
2019-04-23T13:41:54.011Z,26.16
2019-04-23T13:45:08.957Z,26.17
2019-04-23T13:48:06.144Z,26.28
2019-04-23T13:51:25.669Z,26.08
2019-04-23T13:54:40.115Z,26.13
2019-04-23T14:00:44.773Z,26.07
2019-04-23T14:03:40.589Z,26.00
2019-04-23T14:06:46.510Z,25.95
2019-04-23T14:13:19.609Z,26.14
2019-04-23T14:16:11.734Z,26.15
2019-04-23T14:19:06.791Z,26.15
2019-04-23T14:22:46.302Z,26.15
2019-04-23T14:25:50.703Z,26.08
2019-04-23T14:28:36.935Z,26.05
2019-04-23T14:31:53.302Z,26.16
2019-04-23T14:34:54.345Z,26.34
2019-04-23T14:38:11.339Z,26.33
2019-04-23T14:41:05.218Z,26.10
2019-04-23T14:44:11.382Z,25.79
2019-04-23T14:47:16.897Z,25.42
2019-04-23T14:53:24.417Z,25.05
2019-04-23T14:56:35.034Z,24.90
2019-04-23T14:59:37.705Z,24.81
2019-04-23T15:06:04.899Z,24.59
2019-04-23T15:09:04.223Z,24.44
2019-04-23T15:12:09.684Z,24.38
2019-04-23T15:18:25.301Z,24.10
2019-04-23T15:21:51.151Z,23.91
2019-04-23T15:24:41.277Z,23.87
2019-04-23T15:30:52.066Z,23.71
2019-04-23T15:34:00.906Z,23.72
2019-04-23T15:37:14.481Z,23.62
2019-04-23T15:40:11.181Z,23.64
2019-04-23T15:43:19.047Z,23.60
2019-04-23T15:46:26.785Z,23.47
2019-04-23T15:52:38.044Z,23.36
2019-04-23T15:55:44.023Z,23.35
2019-04-23T15:58:53.607Z,23.40
2019-04-23T16:01:43.204Z,23.45
2019-04-23T16:04:31.598Z,23.39
2019-04-23T16:07:54.706Z,23.42
2019-04-23T16:14:22.806Z,23.25
2019-04-23T16:20:37.912Z,23.29
2019-04-23T16:26:55.913Z,23.32
2019-04-23T16:33:10.463Z,23.26
2019-04-23T16:36:16.710Z,23.18
2019-04-23T16:39:15.808Z,23.12
2019-04-23T16:42:32.687Z,23.04
2019-04-23T16:45:31.340Z,23.01
2019-04-23T16:51:37.490Z,22.91
2019-04-23T16:54:54.592Z,22.88
2019-04-23T16:58:01.485Z,22.88
2019-04-23T17:07:14.922Z,22.82
2019-04-23T17:10:31.299Z,22.80
2019-04-23T17:16:34.324Z,22.66
2019-04-23T17:20:03.009Z,22.52
2019-04-23T17:22:48.196Z,22.38
2019-04-23T17:25:59.211Z,22.29
2019-04-23T17:32:08.520Z,21.90
2019-04-23T17:35:35.142Z,21.69
2019-04-23T17:38:32.293Z,21.50
2019-04-23T17:41:50.075Z,21.29
2019-04-23T17:48:13.200Z,20.77
2019-04-23T17:54:24.888Z,20.38
2019-04-23T17:57:29.682Z,20.29
2019-04-23T18:00:38.997Z,20.07
2019-04-23T18:03:51.589Z,19.90
2019-04-23T18:07:05.195Z,19.74
2019-04-23T18:10:13.286Z,19.62
2019-04-23T18:13:08.867Z,19.51
2019-04-23T18:16:16.177Z,19.41
2019-04-23T18:19:13.129Z,19.32
2019-04-23T18:22:22.271Z,19.32
2019-04-23T18:28:37.203Z,19.24
2019-04-23T18:31:51.459Z,19.23
2019-04-23T18:35:08.739Z,19.19
2019-04-23T18:37:56.318Z,19.11
2019-04-23T18:44:16.174Z,19.12
2019-04-23T18:47:27.784Z,19.08
2019-04-23T18:50:37.690Z,18.98
2019-04-23T18:53:40.777Z,18.83
2019-04-23T18:56:41.818Z,18.73
2019-04-23T19:03:10.737Z,18.39
2019-04-23T19:06:21.884Z,18.21
2019-04-23T19:09:28.685Z,18.02
2019-04-23T19:12:42.133Z,18.21
2019-04-23T19:15:42.617Z,18.60
2019-04-23T19:18:56.835Z,18.93
2019-04-23T19:25:09.653Z,19.25
2019-04-23T19:28:30.337Z,19.30
2019-04-23T19:31:26.331Z,19.24
2019-04-23T19:37:55.547Z,19.26
2019-04-23T19:43:58.953Z,19.17
2019-04-23T19:49:57.128Z,19.03
2019-04-23T19:53:36.370Z,18.93
2019-04-23T19:59:23.297Z,18.72
2019-04-23T20:02:45.339Z,18.68
2019-04-23T20:05:41.049Z,18.70
2019-04-23T20:09:04.085Z,18.63
2019-04-23T20:11:57.462Z,18.61
2019-04-23T20:14:51.828Z,18.68
2019-04-23T20:17:54.526Z,18.52
2019-04-23T20:24:21.591Z,18.53
2019-04-23T20:27:18.531Z,18.31
2019-04-23T20:34:24.616Z,18.18
2019-04-23T20:37:06.437Z,18.20
2019-04-23T20:43:28.984Z,17.99
2019-04-23T20:46:35.241Z,18.00
2019-04-23T20:52:41.192Z,17.79
2019-04-23T20:59:03.334Z,17.80
2019-04-23T21:02:42.058Z,17.75
2019-04-23T21:05:23.527Z,17.75
2019-04-23T21:18:06.490Z,17.59
2019-04-23T21:21:03.681Z,17.52
2019-04-23T21:24:08.791Z,17.60
2019-04-23T21:27:21.939Z,17.42
2019-04-23T21:30:59.034Z,17.35
2019-04-23T21:33:50.771Z,17.29
2019-04-23T21:36:49.424Z,16.96
2019-04-23T21:43:10.662Z,16.67
2019-04-23T21:49:25.125Z,16.22
2019-04-23T21:52:32.301Z,16.11
2019-04-23T21:55:48.529Z,16.04
2019-04-23T22:05:17.512Z,15.89
2019-04-23T22:08:03.576Z,15.91
2019-04-23T22:11:36.115Z,15.78
2019-04-23T22:14:22.109Z,15.86
2019-04-23T22:17:28.843Z,15.82
2019-04-23T22:20:36.325Z,15.72
2019-04-23T22:23:50.566Z,15.79
2019-04-23T22:26:38.147Z,15.70
2019-04-23T22:29:45.090Z,15.58
2019-04-23T22:36:21.082Z,15.54
2019-04-23T22:39:11.596Z,15.55
2019-04-23T22:42:26.870Z,15.59
2019-04-23T22:48:34.949Z,15.58
2019-04-23T22:51:55.286Z,15.66
2019-04-23T22:54:51.048Z,15.76
2019-04-23T22:57:58.743Z,15.83
2019-04-23T23:01:10.642Z,15.84
2019-04-23T23:04:13.464Z,15.74
2019-04-23T23:07:21.925Z,15.57
2019-04-23T23:10:37.690Z,15.34
2019-04-23T23:13:35.775Z,15.22
2019-04-23T23:16:39.260Z,15.12
2019-04-23T23:19:49.334Z,14.87
2019-04-23T23:23:01.839Z,14.83
2019-04-23T23:25:56.808Z,14.73
2019-04-23T23:29:12.327Z,14.52
2019-04-23T23:32:11.104Z,14.53
2019-04-23T23:38:27.118Z,14.54
2019-04-23T23:41:26.404Z,14.46
2019-04-23T23:47:38.065Z,14.36
2019-04-23T23:50:54.648Z,14.31
